Time;durP1;ratioP1;P1;durP2;ratioP2;P2;SDS_P1;SDS_P2;PMS_P1;PMS_P2;Temp;Humidity;BMP_temperature;BMP_pressure;BME280_temperature;BME280_humidity;BME280_pressure;Samples;Min_cycle;Max_cycle;Signal;HPM_P1;HPM_P2
2022/12/01 00:02:12;;;;;;;11.85;10.65;;;;;;;1.10;100.00;95829.13;5087047;28;20512;-70
2022/12/01 00:04:38;;;;;;;11.98;10.68;;;;;;;1.15;100.00;95827.16;5080601;28;20262;-70
2022/12/01 00:07:03;;;;;;;13.02;11.77;;;;;;;1.20;100.00;95827.75;5082610;28;20032;-70
2022/12/01 00:12:12;;;;;;;14.60;12.73;;;;;;;1.26;100.00;95822.22;5078494;28;20055;-59
2022/12/01 00:14:37;;;;;;;12.32;11.13;;;;;;;1.28;100.00;95829.94;5073100;28;20490;-59
2022/12/01 00:17:04;;;;;;;13.90;12.45;;;;;;;1.33;100.00;95827.94;5084149;28;20039;-59
2022/12/01 00:19:29;;;;;;;13.43;12.00;;;;;;;1.34;100.00;95831.38;5078213;28;20107;-59
2022/12/01 00:21:55;;;;;;;15.43;13.65;;;;;;;1.49;100.00;95829.72;5077559;28;20185;-59
2022/12/01 00:24:22;;;;;;;16.65;12.68;;;;;;;1.50;100.00;95823.59;5074467;28;20514;-59
2022/12/01 00:26:48;;;;;;;16.33;12.57;;;;;;;1.47;100.00;95824.59;5072347;28;20498;-59
2022/12/01 00:29:13;;;;;;;19.38;12.98;;;;;;;1.45;100.00;95829.03;5077176;28;20020;-66
2022/12/01 00:31:38;;;;;;;20.13;13.40;;;;;;;1.47;100.00;95828.97;5078085;28;20028;-71
2022/12/01 00:34:04;;;;;;;17.27;13.15;;;;;;;1.51;100.00;95820.09;5077022;28;20270;-70
2022/12/01 00:36:29;;;;;;;20.55;14.05;;;;;;;1.55;100.00;95819.00;5084737;28;20031;-70
2022/12/01 00:38:55;;;;;;;24.73;16.60;;;;;;;1.54;100.00;95815.53;5085194;28;20025;-70
2022/12/01 00:41:22;;;;;;;24.73;16.25;;;;;;;1.56;100.00;95821.50;5081904;28;20047;-70
2022/12/01 00:43:48;;;;;;;27.38;17.55;;;;;;;1.59;100.00;95817.91;5088836;28;20099;-71
2022/12/01 00:46:13;;;;;;;24.25;17.00;;;;;;;1.65;100.00;95816.72;5083677;28;20470;-70
2022/12/01 00:48:38;;;;;;;21.88;16.42;;;;;;;1.65;100.00;95817.56;5089126;28;20039;-57
2022/12/01 00:51:04;;;;;;;19.13;14.95;;;;;;;1.67;100.00;95815.75;5082401;28;20025;-67
2022/12/01 00:53:30;;;;;;;18.63;12.63;;;;;;;1.74;100.00;95818.00;5087560;28;20432;-67
2022/12/01 00:55:55;;;;;;;16.08;12.13;;;;;;;1.73;100.00;95821.50;5081631;28;20031;-67
2022/12/01 00:58:21;;;;;;;14.90;10.90;;;;;;;1.72;100.00;95818.06;5092103;28;20039;-66
2022/12/01 01:00:46;;;;;;;11.23;10.07;;;;;;;1.73;100.00;95821.50;5082842;28;20035;-66
2022/12/01 01:03:12;;;;;;;12.30;10.98;;;;;;;1.75;100.00;95817.06;5084872;28;20043;-67
2022/12/01 01:05:39;;;;;;;13.25;11.70;;;;;;;1.73;100.00;95822.31;5089661;28;20489;-66
2022/12/01 01:08:09;;;;;;;12.35;10.60;;;;;;;1.74;100.00;95824.00;5091524;28;20555;-61
2022/12/01 01:10:39;;;;;;;13.85;11.65;;;;;;;1.76;100.00;95824.75;5078416;28;20052;-59
2022/12/01 01:13:04;;;;;;;14.35;10.52;;;;;;;1.78;100.00;95820.34;5079362;28;20032;-59
2022/12/01 01:15:30;;;;;;;9.98;8.98;;;;;;;1.78;100.00;95822.94;5086888;28;20393;-59
2022/12/01 01:17:55;;;;;;;11.77;8.93;;;;;;;1.80;100.00;95826.28;5077109;28;20111;-60
2022/12/01 01:20:20;;;;;;;10.88;8.55;;;;;;;1.82;100.00;95824.44;5076920;28;20036;-60
2022/12/01 01:22:46;;;;;;;10.45;8.93;;;;;;;1.86;100.00;95825.06;5084862;28;20028;-60
2022/12/01 01:25:11;;;;;;;10.85;8.50;;;;;;;1.86;100.00;95825.06;5079703;28;20462;-59
2022/12/01 01:27:36;;;;;;;10.70;9.60;;;;;;;1.84;100.00;95820.00;5077404;28;20020;-60
2022/12/01 01:30:03;;;;;;;13.05;8.43;;;;;;;1.83;100.00;95820.06;5080487;28;20027;-56
2022/12/01 01:32:28;;;;;;;10.77;8.70;;;;;;;1.81;100.00;95825.34;5090717;28;20047;-57
2022/12/01 01:34:53;;;;;;;10.05;8.55;;;;;;;1.82;100.00;95824.44;5086782;28;20481;-56
2022/12/01 01:37:19;;;;;;;8.90;7.63;;;;;;;1.83;100.00;95831.31;5087345;28;20111;-56
2022/12/01 01:39:44;;;;;;;8.00;7.20;;;;;;;1.85;100.00;95829.44;5075698;28;20020;-58
2022/12/01 01:42:13;;;;;;;9.38;6.60;;;;;;;1.89;100.00;95827.53;5085650;28;20028;-57
2022/12/01 01:44:54;;;;;;;11.80;8.57;;;;;;;1.91;100.00;95836.06;5074437;28;20020;-57
2022/12/01 01:47:27;;;;;;;16.30;10.48;;;;;;;1.92;100.00;95829.94;5086300;28;20023;-60
2022/12/01 01:49:56;;;;;;;9.80;7.47;;;;;;;1.92;100.00;95835.16;5084526;28;20020;-66
2022/12/01 01:52:22;;;;;;;11.10;7.47;;;;;;;1.94;100.00;95832.44;5084053;28;20024;-66
2022/12/01 01:54:51;;;;;;;15.35;8.63;;;;;;;1.94;100.00;95838.50;5080422;28;20021;-65
2022/12/01 01:57:25;;;;;;;18.77;10.40;;;;;;;1.95;100.00;95837.56;5083786;28;20112;-66
2022/12/01 02:00:06;;;;;;;19.70;10.02;;;;;;;1.94;100.00;95835.91;5085130;28;20019;-66
2022/12/01 02:02:32;;;;;;;17.63;10.18;;;;;;;1.96;100.00;95830.59;5074164;28;20375;-66
2022/12/01 02:05:01;;;;;;;10.48;8.05;;;;;;;1.96;100.00;95831.44;5084321;28;20062;-70
2022/12/01 02:07:26;;;;;;;6.20;5.60;;;;;;;1.99;100.00;95831.28;5085119;28;20060;-66
2022/12/01 02:09:54;;;;;;;5.93;5.35;;;;;;;2.03;100.00;95841.50;5079536;28;20069;-56
2022/12/01 02:12:28;;;;;;;6.82;4.35;;;;;;;2.06;100.00;95836.13;5078651;28;20099;-56
2022/12/01 02:15:03;;;;;;;5.37;4.90;;;;;;;2.07;100.00;95843.84;5083051;28;20024;-57
2022/12/01 02:17:56;;;;;;;7.10;4.93;;;;;;;2.08;100.00;95839.47;5083033;28;20070;-57
2022/12/01 02:20:49;;;;;;;5.82;5.15;;;;;;;2.10;100.00;95843.66;5078848;28;20517;-58
2022/12/01 02:23:29;;;;;;;5.20;4.80;;;;;;;2.09;100.00;95836.78;5078946;28;20131;-61
2022/12/01 02:26:31;;;;;;;5.32;4.82;;;;;;;2.08;100.00;95839.47;5082092;28;20024;-57
2022/12/01 02:29:09;;;;;;;4.60;4.25;;;;;;;2.04;100.00;95838.81;5097780;28;20101;-61
2022/12/01 02:31:43;;;;;;;4.93;4.50;;;;;;;2.05;100.00;95839.63;5079552;28;20115;-61
2022/12/01 02:34:28;;;;;;;5.45;4.57;;;;;;;2.07;100.00;95835.19;5083406;28;20044;-60
2022/12/01 02:37:34;;;;;;;4.80;4.40;;;;;;;2.08;100.00;95834.28;5074364;28;20021;-60
2022/12/01 02:40:19;;;;;;;6.28;5.57;;;;;;;2.08;100.00;95837.72;5017848;28;20490;-60
2022/12/01 02:42:52;;;;;;;7.15;6.15;;;;;;;2.09;100.00;95836.78;5076219;28;20497;-70
2022/12/01 02:45:28;;;;;;;5.95;5.35;;;;;;;2.08;100.00;95839.47;5080102;28;20393;-56
2022/12/01 02:47:58;;;;;;;5.88;5.40;;;;;;;2.08;100.00;95837.72;5079503;28;20531;-55
2022/12/01 02:50:27;;;;;;;7.30;5.95;;;;;;;2.08;100.00;95840.31;5081440;28;20027;-55
2022/12/01 02:52:53;;;;;;;6.78;5.22;;;;;;;2.08;100.00;95834.28;5086460;28;20028;-57
2022/12/01 02:55:19;;;;;;;5.72;5.22;;;;;;;2.07;100.00;95835.19;5083676;28;20036;-56
2022/12/01 02:57:44;;;;;;;5.82;5.22;;;;;;;2.08;100.00;95827.31;5081009;28;20020;-56
2022/12/01 03:00:12;;;;;;;5.43;5.03;;;;;;;2.06;100.00;95829.19;5083691;28;20035;-56
2022/12/01 03:03:20;;;;;;;5.30;4.90;;;;;;;2.06;100.00;95833.53;5082828;28;20027;-59
2022/12/01 03:06:02;;;;;;;5.43;4.93;;;;;;;2.05;100.00;95830.09;5082796;28;20495;-67
2022/12/01 03:08:36;;;;;;;4.40;4.10;;;;;;;2.03;100.00;95826.75;5077989;28;20386;-67
2022/12/01 03:11:01;;;;;;;4.72;4.32;;;;;;;2.03;100.00;95831.09;5072336;28;20059;-66
2022/12/01 03:13:43;;;;;;;8.27;4.45;;;;;;;2.03;100.00;95823.31;5079490;28;20117;-66
2022/12/01 03:16:15;;;;;;;4.70;4.40;;;;;;;2.02;100.00;95825.09;5083419;28;20052;-66
2022/12/01 03:18:53;;;;;;;5.05;4.55;;;;;;;2.02;100.00;95824.22;5089892;28;20034;-66
2022/12/01 03:21:37;;;;;;;6.38;4.78;;;;;;;1.96;100.00;95821.06;5085043;28;20027;-60
2022/12/01 03:24:19;;;;;;;5.50;5.00;;;;;;;1.94;100.00;95820.31;5072799;28;20051;-60
2022/12/01 03:26:48;;;;;;;4.85;4.50;;;;;;;1.90;100.00;95826.59;5075514;28;20505;-60
2022/12/01 03:29:18;;;;;;;4.68;4.28;;;;;;;1.91;100.00;95830.03;5081406;28;20047;-59
2022/12/01 03:31:50;;;;;;;4.70;4.30;;;;;;;1.89;100.00;95830.13;5088220;28;20085;-60
2022/12/01 03:34:23;;;;;;;4.72;4.32;;;;;;;1.89;100.00;95834.47;5083493;28;20040;-59
2022/12/01 03:37:08;;;;;;;5.00;4.53;;;;;;;1.80;100.00;95830.63;5080740;28;20059;-60
2022/12/01 03:39:36;;;;;;;8.43;5.37;;;;;;;1.75;100.00;95827.44;5080604;28;20016;-59
2022/12/01 03:42:10;;;;;;;8.48;6.63;;;;;;;1.71;100.00;95831.97;5066494;28;20311;-56
2022/12/01 03:44:43;;;;;;;9.85;8.85;;;;;;;1.65;100.00;95827.94;5078591;28;20338;-60
2022/12/01 03:47:13;;;;;;;10.20;9.27;;;;;;;1.60;100.00;95827.34;5081124;28;20029;-60
2022/12/01 03:49:39;;;;;;;10.57;9.50;;;;;;;1.57;100.00;95827.53;5086772;28;20028;-60
2022/12/01 03:52:18;;;;;;;10.15;9.15;;;;;;;1.51;100.00;95831.28;5083734;28;20047;-60
2022/12/01 03:55:11;;;;;;;9.63;8.57;;;;;;;1.43;100.00;95828.28;5080731;28;20028;-60
2022/12/01 03:57:53;;;;;;;11.73;8.13;;;;;;;1.37;100.00;95832.03;5079191;28;20020;-60
2022/12/01 04:00:19;;;;;;;9.88;8.82;;;;;;;1.31;100.00;95832.38;5073147;28;20103;-61
2022/12/01 04:02:44;;;;;;;8.20;7.55;;;;;;;1.19;100.00;95836.44;5081814;28;20016;-59
2022/12/01 04:05:10;;;;;;;8.75;7.95;;;;;;;1.08;100.00;95834.41;5078868;28;20611;-71
2022/12/01 04:07:37;;;;;;;7.30;6.70;;;;;;;1.01;100.00;95830.47;5083934;28;20555;-70
2022/12/01 04:10:03;;;;;;;6.18;5.68;;;;;;;1.00;100.00;95827.03;5076024;28;20029;-70
2022/12/01 04:12:29;;;;;;;6.70;5.88;;;;;;;0.95;100.00;95834.22;5078301;28;20707;-70
2022/12/01 04:15:14;;;;;;;6.25;5.72;;;;;;;0.85;100.00;95838.19;5078151;28;20042;-70
2022/12/01 04:17:43;;;;;;;5.97;5.57;;;;;;;0.79;100.00;95839.34;5082036;28;20115;-70
2022/12/01 04:20:13;;;;;;;5.70;5.30;;;;;;;0.71;100.00;95838.88;5077195;28;20021;-60
2022/12/01 04:22:38;;;;;;;5.82;5.35;;;;;;;0.66;100.00;95835.69;5076640;28;20490;-60
2022/12/01 04:25:05;;;;;;;6.20;5.70;;;;;;;0.63;100.00;95838.44;5084628;28;20035;-59
2022/12/01 04:27:31;;;;;;;5.95;5.55;;;;;;;0.64;100.00;95835.75;5081278;28;20115;-59
2022/12/01 04:29:57;;;;;;;6.47;5.97;;;;;;;0.67;100.00;95830.44;5077320;28;20516;-59
2022/12/01 04:32:23;;;;;;;6.40;5.80;;;;;;;0.68;100.00;95837.31;5079959;28;20024;-59
2022/12/01 04:34:48;;;;;;;7.10;6.45;;;;;;;0.69;100.00;95832.94;5076828;28;20043;-59
2022/12/01 04:37:14;;;;;;;6.88;6.25;;;;;;;0.73;100.00;95838.81;5086240;28;20024;-60
2022/12/01 04:39:40;;;;;;;8.30;7.50;;;;;;;0.75;100.00;95835.22;5084932;28;20520;-65
2022/12/01 04:42:07;;;;;;;10.65;8.88;;;;;;;0.76;100.00;95834.31;5079298;28;20020;-66
2022/12/01 04:44:32;;;;;;;11.00;8.68;;;;;;;0.78;100.00;95826.47;5083771;28;20035;-66
2022/12/01 04:46:57;;;;;;;10.93;9.25;;;;;;;0.78;100.00;95831.66;5084551;28;20024;-67
2022/12/01 04:49:23;;;;;;;9.25;8.15;;;;;;;0.78;100.00;95827.31;5082666;28;20016;-66
2022/12/01 04:51:48;;;;;;;9.38;8.48;;;;;;;0.73;100.00;95826.69;5080503;28;20028;-66
2022/12/01 04:54:15;;;;;;;8.68;7.88;;;;;;;0.70;100.00;95826.84;5076721;28;20101;-66
2022/12/01 04:56:40;;;;;;;12.95;8.73;;;;;;;0.69;100.00;95826.03;5087959;28;20496;-66
2022/12/01 04:59:06;;;;;;;9.55;8.65;;;;;;;0.67;100.00;95825.28;5077506;28;20029;-60
2022/12/01 05:01:32;;;;;;;11.90;10.38;;;;;;;0.66;100.00;95827.94;5073606;28;20043;-66
2022/12/01 05:03:57;;;;;;;9.07;8.25;;;;;;;0.69;100.00;95827.75;5082177;28;20024;-66
2022/12/01 05:06:25;;;;;;;8.68;7.95;;;;;;;0.73;100.00;95826.69;5088511;28;20012;-66
2022/12/01 05:08:54;;;;;;;9.68;8.68;;;;;;;0.74;100.00;95820.59;5089258;28;20107;-66
2022/12/01 05:11:19;;;;;;;10.02;9.07;;;;;;;0.77;100.00;95823.03;5088161;28;20027;-66
2022/12/01 05:13:46;;;;;;;10.30;9.30;;;;;;;0.82;100.00;95828.81;5089306;28;20024;-66
2022/12/01 05:16:24;;;;;;;9.70;8.70;;;;;;;0.89;100.00;95833.69;5081724;28;20024;-66
2022/12/01 05:20:55;;;;;;;11.77;9.30;;;;;;;0.93;100.00;95827.41;5071477;28;20417;-60
2022/12/01 05:21:42;;;;;;;12.98;10.40;;;;;;;0.96;100.00;95827.25;5088251;28;20444;-66
2022/12/01 05:24:09;;;;;;;15.27;10.68;;;;;;;1.03;100.00;95830.38;5087685;28;20027;-66
2022/12/01 05:26:35;;;;;;;19.45;12.18;;;;;;;1.05;100.00;95829.41;5085820;28;20035;-66
2022/12/01 05:29:00;;;;;;;17.17;12.18;;;;;;;1.13;100.00;95829.81;5086917;28;20398;-66
2022/12/01 05:31:26;;;;;;;26.17;16.00;;;;;;;1.19;100.00;95835.59;5089291;28;20044;-66
2022/12/01 05:33:51;;;;;;;31.45;17.30;;;;;;;1.22;100.00;95843.25;5086569;28;20416;-66
2022/12/01 05:36:16;;;;;;;26.77;15.10;;;;;;;1.27;100.00;95846.41;5086953;28;20545;-58
2022/12/01 05:38:42;;;;;;;25.48;15.60;;;;;;;1.29;100.00;95840.22;5090339;28;20474;-66
2022/12/01 05:41:08;;;;;;;24.30;15.38;;;;;;;1.29;100.00;95840.22;5087439;28;20424;-66
2022/12/01 05:43:34;;;;;;;21.98;14.00;;;;;;;1.30;100.00;95843.66;5094320;28;20540;-66
2022/12/01 05:45:59;;;;;;;17.10;11.38;;;;;;;1.32;100.00;95847.00;5081654;28;20081;-65
2022/12/01 05:48:25;;;;;;;13.95;9.57;;;;;;;1.35;100.00;95846.03;5081656;28;20065;-66
2022/12/01 05:50:50;;;;;;;13.40;8.95;;;;;;;1.36;100.00;95853.69;5084624;28;20020;-66
2022/12/01 05:53:17;;;;;;;13.98;10.57;;;;;;;1.38;100.00;95851.88;5077565;28;20044;-65
2022/12/01 05:55:43;;;;;;;22.55;13.07;;;;;;;1.42;100.00;95847.34;5084878;28;20023;-60
2022/12/01 05:58:09;;;;;;;15.13;11.52;;;;;;;1.45;100.00;95847.19;5092011;28;20024;-61
2022/12/01 06:00:36;;;;;;;11.10;8.88;;;;;;;1.47;100.00;95854.91;5078552;28;20028;-61
2022/12/01 06:03:01;;;;;;;10.70;9.57;;;;;;;1.50;100.00;95850.38;5075893;28;20015;-61
2022/12/01 06:05:27;;;;;;;15.10;10.32;;;;;;;1.52;100.00;95852.91;5092926;28;20110;-61
2022/12/01 06:07:52;;;;;;;19.23;9.15;;;;;;;1.52;100.00;95853.72;5092268;28;20020;-61
2022/12/01 06:10:18;;;;;;;17.77;10.38;;;;;;;1.51;100.00;95852.03;5092074;28;20516;-61
2022/12/01 06:12:43;;;;;;;14.57;11.68;;;;;;;1.51;100.00;95862.41;5091212;28;20031;-61
2022/12/01 06:15:11;;;;;;;16.02;11.70;;;;;;;1.52;100.00;95855.50;5080984;28;20035;-59
2022/12/01 06:17:37;;;;;;;21.92;14.77;;;;;;;1.55;100.00;95863.09;5073870;28;20025;-56
2022/12/01 06:20:02;;;;;;;28.70;24.65;;;;;;;1.57;100.00;95866.44;5070413;28;20036;-60
2022/12/01 06:22:27;;;;;;;36.75;31.35;;;;;;;1.55;100.00;95865.69;5077918;28;20025;-61
2022/12/01 06:24:53;;;;;;;27.27;24.33;;;;;;;1.55;100.00;95865.69;5071673;28;20553;-62
2022/12/01 06:27:18;;;;;;;27.38;22.65;;;;;;;1.54;100.00;95871.81;5077674;28;20370;-61
2022/12/01 06:29:43;;;;;;;21.00;14.50;;;;;;;1.54;100.00;95866.63;5070236;28;20418;-61
2022/12/01 06:32:10;;;;;;;20.98;13.27;;;;;;;1.52;100.00;95873.66;5089002;28;20032;-60
2022/12/01 06:34:35;;;;;;;26.02;19.38;;;;;;;1.51;100.00;95872.81;5087113;28;20418;-66
2022/12/01 06:37:00;;;;;;;18.30;13.57;;;;;;;1.50;100.00;95878.09;5083811;28;20028;-70
2022/12/01 06:39:26;;;;;;;16.45;14.68;;;;;;;1.48;100.00;95878.16;5073240;28;20043;-60
2022/12/01 06:41:51;;;;;;;22.80;17.92;;;;;;;1.43;100.00;95872.38;5082341;28;20032;-60
2022/12/01 06:44:16;;;;;;;20.80;16.35;;;;;;;1.37;100.00;95872.72;5084158;28;20035;-60
2022/12/01 06:46:42;;;;;;;10.43;8.38;;;;;;;1.27;100.00;95872.34;5073552;28;20090;-60
2022/12/01 06:49:11;;;;;;;9.13;8.23;;;;;;;1.21;100.00;95878.69;5071282;28;20138;-60
2022/12/01 06:51:37;;;;;;;7.25;6.53;;;;;;;1.17;100.00;95877.19;5071558;28;20575;-59
2022/12/01 06:54:03;;;;;;;9.60;6.88;;;;;;;1.12;100.00;95876.59;5071091;28;20029;-60
2022/12/01 06:56:28;;;;;;;6.25;5.75;;;;;;;1.03;100.00;95877.91;5090832;28;20042;-66
2022/12/01 06:58:54;;;;;;;13.80;12.40;;;;;;;0.97;100.00;95873.88;5085251;28;20067;-61
2022/12/01 07:01:19;;;;;;;8.90;8.00;;;;;;;0.92;100.00;95877.59;5087551;28;20020;-61
2022/12/01 07:03:49;;;;;;;7.15;6.40;;;;;;;0.81;100.00;95875.56;5088137;28;20052;-62
2022/12/01 07:06:14;;;;;;;7.70;7.00;;;;;;;0.70;100.00;95876.94;5094554;28;20039;-61
2022/12/01 07:08:40;;;;;;;7.05;6.35;;;;;;;0.63;100.00;95878.16;5087232;28;20025;-62
2022/12/01 07:11:11;;;;;;;6.93;6.32;;;;;;;0.58;100.00;95880.13;5088463;28;20546;-61
2022/12/01 07:13:37;;;;;;;9.32;8.52;;;;;;;0.51;100.00;95882.19;5087549;28;20051;-58
2022/12/01 07:16:04;;;;;;;10.30;9.43;;;;;;;0.47;100.00;95895.38;5074444;28;20043;-60
2022/12/01 07:18:30;;;;;;;10.75;9.80;;;;;;;0.43;100.00;95894.69;5078140;28;20012;-60
2022/12/01 07:21:07;;;;;;;11.05;9.95;;;;;;;0.38;100.00;95888.91;5086438;28;20073;-61
2022/12/01 07:23:33;;;;;;;9.38;8.48;;;;;;;0.36;100.00;95898.50;5079297;28;20024;-60
2022/12/01 07:26:04;;;;;;;8.82;8.02;;;;;;;0.35;100.00;95899.41;5077644;28;20073;-61
2022/12/01 07:28:29;;;;;;;17.15;13.05;;;;;;;0.34;100.00;95900.31;5083751;28;20106;-61
2022/12/01 07:31:07;;;;;;;16.88;14.25;;;;;;;0.31;100.00;95915.97;5081085;28;20495;-60
2022/12/01 07:33:33;;;;;;;20.00;15.77;;;;;;;0.28;100.00;95917.81;5082323;28;20120;-64
2022/12/01 07:35:58;;;;;;;27.20;20.08;;;;;;;0.30;100.00;95915.16;5087459;28;20028;-58
2022/12/01 07:38:23;;;;;;;24.15;20.95;;;;;;;0.35;100.00;95925.31;5085342;28;20040;-57
2022/12/01 07:40:49;;;;;;;24.20;20.52;;;;;;;0.38;100.00;95927.75;5083771;28;20024;-56
2022/12/01 07:43:14;;;;;;;22.27;17.88;;;;;;;0.42;100.00;95926.69;5085927;28;20020;-57
2022/12/01 07:45:39;;;;;;;17.63;15.77;;;;;;;0.46;100.00;95930.78;5085831;28;20051;-58
2022/12/01 07:48:05;;;;;;;18.65;16.83;;;;;;;0.52;100.00;95932.25;5098168;28;20015;-58
2022/12/01 07:50:30;;;;;;;26.83;20.50;;;;;;;0.65;100.00;95938.50;5085989;28;20031;-58
2022/12/01 07:52:56;;;;;;;33.05;22.52;;;;;;;0.73;100.00;95935.53;5088226;28;20158;-57
2022/12/01 07:55:21;;;;;;;28.75;20.90;;;;;;;0.84;100.00;95937.59;5087011;28;20028;-58
2022/12/01 07:57:47;;;;;;;30.17;21.75;;;;;;;0.92;100.00;95932.03;5076338;28;20027;-57
2022/12/01 08:00:13;;;;;;;23.73;21.33;;;;;;;1.01;100.00;95941.97;5079884;28;20024;-57
2022/12/01 08:02:38;;;;;;;25.75;21.17;;;;;;;1.10;100.00;95932.88;5072806;28;20018;-57
2022/12/01 08:05:04;;;;;;;23.73;21.05;;;;;;;1.17;100.00;95938.56;5085134;28;20057;-56
2022/12/01 08:07:29;;;;;;;23.73;20.58;;;;;;;1.22;100.00;95934.03;5069122;28;20041;-58
2022/12/01 08:09:54;;;;;;;26.05;17.98;;;;;;;1.23;100.00;95935.69;5069044;28;20508;-58
2022/12/01 08:12:20;;;;;;;19.08;16.70;;;;;;;1.28;100.00;95938.88;5072510;28;20462;-63
2022/12/01 08:14:45;;;;;;;23.08;16.85;;;;;;;1.39;100.00;95936.56;5074357;28;20024;-60
2022/12/01 08:17:10;;;;;;;17.00;14.82;;;;;;;1.56;100.00;95934.84;5068540;28;20116;-59
2022/12/01 08:19:36;;;;;;;16.52;13.73;;;;;;;1.69;100.00;95932.44;5069171;28;20466;-59
2022/12/01 08:22:01;;;;;;;14.82;12.85;;;;;;;1.83;100.00;95932.56;5070466;28;20398;-59
2022/12/01 08:24:27;;;;;;;12.88;10.48;;;;;;;1.93;100.00;95929.44;5071371;28;20068;-60
2022/12/01 08:26:52;;;;;;;15.00;10.23;;;;;;;2.03;100.00;95932.38;5071571;28;20020;-60
2022/12/01 08:29:17;;;;;;;10.10;8.98;;;;;;;2.13;100.00;95929.22;5070228;28;20104;-60
2022/12/01 08:31:43;;;;;;;13.00;8.82;;;;;;;2.17;100.00;95922.09;5091237;28;20516;-60
2022/12/01 08:34:08;;;;;;;10.65;7.70;;;;;;;2.24;100.00;95928.63;5088311;28;20040;-67
2022/12/01 08:36:34;;;;;;;8.02;7.22;;;;;;;2.29;100.00;95929.19;5084932;28;20482;-67
2022/12/01 08:39:00;;;;;;;8.65;7.78;;;;;;;2.37;100.00;95930.53;5075369;28;20032;-67
2022/12/01 08:41:27;;;;;;;8.52;7.13;;;;;;;2.39;100.00;95931.28;5068206;28;20371;-67
2022/12/01 08:43:53;;;;;;;8.45;7.63;;;;;;;2.47;100.00;95934.28;5072993;28;20713;-67
2022/12/01 08:46:18;;;;;;;10.15;7.18;;;;;;;2.46;100.00;95937.00;5080916;28;20020;-67
2022/12/01 08:48:44;;;;;;;8.00;7.10;;;;;;;2.42;100.00;95925.91;5086841;28;20107;-67
2022/12/01 08:51:14;;;;;;;13.30;6.45;;;;;;;2.40;100.00;95930.38;5074361;28;20086;-69
2022/12/01 08:53:43;;;;;;;6.78;6.13;;;;;;;2.48;100.00;95930.75;5075150;28;20409;-64
2022/12/01 08:56:16;;;;;;;6.85;6.13;;;;;;;2.55;100.00;95926.91;5082838;28;20035;-64
2022/12/01 08:58:41;;;;;;;6.30;5.72;;;;;;;2.65;100.00;95928.97;5089327;28;20378;-64
2022/12/01 09:01:11;;;;;;;6.88;6.22;;;;;;;2.72;100.00;95938.09;5091269;28;20039;-64
2022/12/01 09:03:37;;;;;;;6.90;6.30;;;;;;;2.79;100.00;95933.38;5083192;28;20032;-65
2022/12/01 09:06:05;;;;;;;7.47;6.00;;;;;;;2.84;100.00;95926.16;5086349;28;20099;-63
2022/12/01 09:08:31;;;;;;;6.90;6.20;;;;;;;2.89;100.00;95925.91;5084630;28;20028;-59
2022/12/01 09:10:58;;;;;;;9.10;7.95;;;;;;;2.97;100.00;95932.34;5089276;28;20038;-67
2022/12/01 09:13:24;;;;;;;9.82;8.85;;;;;;;3.09;100.00;95935.13;5090539;28;20039;-62
2022/12/01 09:16:24;;;;;;;9.38;8.15;;;;;;;3.13;100.00;95937.47;5088640;28;20024;-63
2022/12/01 09:18:50;;;;;;;10.93;8.95;;;;;;;3.11;100.00;95934.13;5009663;28;20053;-61
2022/12/01 09:21:18;;;;;;;15.80;10.52;;;;;;;3.09;100.00;95930.78;5070430;28;20575;-62
2022/12/01 09:23:44;;;;;;;16.38;11.73;;;;;;;3.08;100.00;95933.47;5087882;28;20406;-61
2022/12/01 09:26:10;;;;;;;11.57;10.35;;;;;;;3.08;100.00;95930.84;5089182;28;20040;-61
2022/12/01 09:28:36;;;;;;;10.82;9.85;;;;;;;3.06;100.00;95924.91;5090396;28;20393;-64
2022/12/01 09:31:06;;;;;;;11.00;10.00;;;;;;;3.07;100.00;95930.03;5087953;28;20024;-68
2022/12/01 09:33:32;;;;;;;10.82;9.20;;;;;;;3.13;100.00;95929.66;5089955;28;20032;-58
2022/12/01 09:35:58;;;;;;;10.27;9.38;;;;;;;3.20;100.00;95930.16;5089522;28;20032;-58
2022/12/01 09:38:24;;;;;;;10.20;9.20;;;;;;;3.26;100.00;95929.78;5081623;28;20017;-58
2022/12/01 09:40:50;;;;;;;11.32;10.23;;;;;;;3.35;100.00;95917.97;5084459;28;20032;-57
2022/12/01 09:43:21;;;;;;;13.10;9.68;;;;;;;3.42;100.00;95927.09;5087602;28;20044;-58
2022/12/01 09:46:04;;;;;;;10.50;9.25;;;;;;;3.43;99.21;95922.72;5090320;28;20020;-57
2022/12/01 09:48:41;;;;;;;11.13;9.98;;;;;;;3.34;98.71;95923.31;5086443;28;20028;-67
2022/12/01 09:51:12;;;;;;;10.88;10.00;;;;;;;3.32;97.85;95918.16;5083599;28;20024;-56
2022/12/01 09:53:38;;;;;;;11.52;10.38;;;;;;;3.35;96.49;95915.38;5090349;28;20020;-56
2022/12/01 09:56:04;;;;;;;12.85;10.77;;;;;;;3.48;96.27;95923.28;5087885;28;20084;-57
2022/12/01 09:58:30;;;;;;;10.73;9.73;;;;;;;3.67;95.95;95914.38;5088193;28;20435;-57
2022/12/01 10:00:57;;;;;;;9.07;8.38;;;;;;;3.95;95.12;95925.69;5086768;28;20032;-57
2022/12/01 10:03:45;;;;;;;15.13;11.23;;;;;;;3.97;94.79;95927.25;5089639;28;20543;-57
2022/12/01 10:06:15;;;;;;;10.57;9.48;;;;;;;4.09;92.40;95922.22;5079027;28;20020;-63
2022/12/01 10:09:35;;;;;;;11.82;10.63;;;;;;;4.00;91.43;95919.25;5087866;28;20020;-58
2022/12/01 10:12:13;;;;;;;13.75;8.38;;;;;;;4.07;92.95;95921.47;5065839;28;20040;-69
2022/12/01 10:14:39;;;;;;;10.20;8.65;;;;;;;3.94;92.31;95919.66;5089768;28;20031;-68
2022/12/01 10:17:40;;;;;;;8.70;7.80;;;;;;;4.11;92.29;95929.00;5082067;28;20021;-68
2022/12/01 10:20:17;;;;;;;8.48;7.68;;;;;;;4.04;93.74;95919.06;5074862;28;20047;-68
2022/12/01 10:23:27;;;;;;;9.85;8.50;;;;;;;3.93;96.26;95915.38;5089878;28;20027;-68
2022/12/01 10:26:00;;;;;;;9.35;8.43;;;;;;;3.98;95.39;95913.31;5089074;28;20016;-61
2022/12/01 10:28:56;;;;;;;11.15;7.72;;;;;;;4.09;94.45;95912.63;5089710;28;20023;-67
2022/12/01 10:31:22;;;;;;;;;;;;;;;4.10;96.30;95916.09;5068929;28;20038;-59
2022/12/01 10:33:57;;;;;;;13.53;10.83;;;;;;;4.35;96.20;95915.34;5083704;28;19920;-59
2022/12/01 10:36:25;;;;;;;13.23;11.32;;;;;;;4.09;96.97;95912.63;5087830;28;20024;-59
2022/12/01 10:38:50;;;;;;;20.45;12.73;;;;;;;3.99;99.44;95919.38;5088370;28;20016;-59
2022/12/01 10:41:19;;;;;;;15.85;10.85;;;;;;;4.23;98.00;95911.75;5085166;28;20077;-59
2022/12/01 10:43:49;;;;;;;14.63;11.57;;;;;;;3.89;100.00;95916.50;5074566;28;20490;-59
2022/12/01 10:46:31;;;;;;;17.52;12.57;;;;;;;3.62;100.00;95909.44;5085596;28;20468;-59
2022/12/01 10:48:58;;;;;;;12.60;11.38;;;;;;;3.71;100.00;95918.44;5078299;28;20205;-59
2022/12/01 10:51:25;;;;;;;12.52;11.35;;;;;;;3.93;99.85;95912.75;5080140;28;20036;-59
2022/12/01 10:54:05;;;;;;;12.30;11.10;;;;;;;4.20;96.93;95916.31;5092960;28;20054;-59
2022/12/01 10:56:32;;;;;;;11.07;9.95;;;;;;;3.90;97.52;95905.16;5090626;28;20464;-60
2022/12/01 10:59:03;;;;;;;11.50;10.40;;;;;;;4.03;98.23;95914.78;5085485;28;20036;-59
2022/12/01 11:01:35;;;;;;;11.70;10.45;;;;;;;4.08;97.01;95907.50;5085839;28;20024;-59
2022/12/01 11:04:35;;;;;;;10.68;9.68;;;;;;;4.15;95.29;95906.22;5085889;28;20040;-60
2022/12/01 11:07:02;;;;;;;12.63;10.60;;;;;;;4.05;95.27;95912.91;5082208;28;20064;-69
2022/12/01 11:09:29;;;;;;;10.90;9.85;;;;;;;3.86;96.82;95909.69;5076103;28;20443;-61
2022/12/01 11:11:57;;;;;;;11.93;10.52;;;;;;;3.82;97.60;95900.41;5075277;28;20028;-61
2022/12/01 11:14:28;;;;;;;11.73;10.65;;;;;;;3.70;99.71;95899.41;5078262;28;20051;-61
2022/12/01 11:16:54;;;;;;;12.52;11.32;;;;;;;3.72;100.00;95899.28;5084851;28;20052;-61
2022/12/01 11:19:19;;;;;;;18.25;13.63;;;;;;;3.98;99.17;95902.88;5079202;28;20070;-62
2022/12/01 11:21:50;;;;;;;16.17;12.75;;;;;;;3.89;99.46;95905.22;5077059;28;20032;-61
2022/12/01 11:24:27;;;;;;;15.43;13.45;;;;;;;3.93;99.28;95904.09;5085883;28;20608;-56
2022/12/01 11:26:55;;;;;;;14.15;12.70;;;;;;;3.76;100.00;95898.19;5088421;28;20676;-66
2022/12/01 11:29:27;;;;;;;15.45;13.88;;;;;;;3.81;100.00;95895.28;5082022;28;20398;-59
2022/12/01 11:31:53;;;;;;;15.27;13.30;;;;;;;3.70;100.00;95904.59;5078059;28;20024;-59
2022/12/01 11:34:27;;;;;;;15.07;13.57;;;;;;;3.69;100.00;95902.94;5085725;28;20525;-59
2022/12/01 11:36:55;;;;;;;14.57;12.73;;;;;;;3.85;100.00;95899.34;5085020;28;20081;-59
2022/12/01 11:39:31;;;;;;;14.80;13.25;;;;;;;3.86;100.00;95898.44;5085466;28;20520;-59
2022/12/01 11:42:03;;;;;;;13.20;11.80;;;;;;;3.83;100.00;95899.47;5091229;28;20039;-59